createdAt,value
2018-06-21T00:00:09.379Z,5.77
2018-06-21T00:02:38.116Z,5.40
2018-06-21T00:05:06.823Z,5.50
2018-06-21T00:07:35.528Z,5.20
2018-06-21T00:10:04.276Z,5.23
2018-06-21T00:12:33.134Z,5.57
2018-06-21T00:15:01.840Z,5.80
2018-06-21T00:17:30.510Z,5.33
2018-06-21T00:19:59.284Z,5.80
2018-06-21T00:22:27.909Z,6.60
2018-06-21T00:24:56.572Z,5.77
2018-06-21T00:27:25.270Z,5.80
2018-06-21T00:29:53.954Z,5.67
2018-06-21T00:32:22.621Z,6.07
2018-06-21T00:34:51.214Z,6.47
2018-06-21T00:37:19.968Z,6.83
2018-06-21T00:39:48.797Z,6.93
2018-06-21T00:42:17.506Z,7.10
2018-06-21T00:44:46.236Z,7.20
2018-06-21T00:47:14.991Z,7.17
2018-06-21T00:49:43.584Z,7.17
2018-06-21T00:52:12.287Z,7.00
2018-06-21T00:54:40.968Z,6.23
2018-06-21T00:57:09.676Z,6.70
2018-06-21T00:59:38.322Z,6.10
2018-06-21T01:02:07.049Z,6.20
2018-06-21T01:04:35.317Z,6.57
2018-06-21T01:07:04.036Z,5.90
2018-06-21T01:09:32.747Z,6.83
2018-06-21T01:12:01.375Z,6.20
2018-06-21T01:14:30.032Z,6.80
2018-06-21T01:16:58.686Z,6.70
2018-06-21T01:19:27.481Z,6.97
2018-06-21T01:21:56.146Z,6.33
2018-06-21T01:24:25.184Z,6.47
2018-06-21T01:26:53.765Z,6.30
2018-06-21T01:35:19.988Z,6.20
2018-06-21T01:37:48.790Z,6.13
2018-06-21T01:40:17.438Z,5.80
2018-06-21T01:42:46.087Z,5.90
2018-06-21T01:45:14.759Z,6.30
2018-06-21T01:47:43.381Z,6.27
2018-06-21T01:50:12.026Z,6.73
2018-06-21T01:52:40.707Z,6.57
2018-06-21T01:55:09.353Z,6.50
2018-06-21T01:57:37.903Z,6.83
2018-06-21T02:00:06.626Z,6.50
2018-06-21T02:02:35.310Z,6.57
2018-06-21T02:05:04.094Z,7.00
2018-06-21T02:07:32.780Z,7.63
2018-06-21T02:10:01.406Z,7.00
2018-06-21T02:12:30.138Z,8.13
2018-06-21T02:14:58.826Z,8.37
2018-06-21T02:17:27.677Z,8.40
2018-06-21T02:19:56.331Z,8.00
2018-06-21T02:22:25.001Z,9.20
2018-06-21T02:24:53.706Z,8.30
2018-06-21T02:27:22.450Z,7.90
2018-06-21T02:29:51.073Z,7.50
2018-06-21T02:32:19.819Z,7.33
2018-06-21T02:34:48.599Z,7.70
2018-06-21T02:37:17.389Z,7.10
2018-06-21T02:39:46.113Z,6.67
2018-06-21T02:42:14.805Z,7.37
2018-06-21T02:44:43.517Z,7.07
2018-06-21T02:47:12.116Z,6.63
2018-06-21T02:49:40.779Z,6.50
2018-06-21T02:52:09.447Z,6.90
2018-06-21T02:54:38.149Z,6.70
2018-06-21T02:57:06.873Z,7.00
2018-06-21T02:59:35.549Z,6.37
2018-06-21T03:02:04.212Z,7.17
2018-06-21T03:04:32.870Z,6.87
2018-06-21T03:07:01.479Z,6.97
2018-06-21T03:09:30.127Z,6.90
2018-06-21T03:11:58.867Z,6.20
2018-06-21T03:14:27.536Z,6.80
2018-06-21T03:16:56.230Z,6.67
2018-06-21T03:19:24.886Z,6.47
2018-06-21T03:22:11.826Z,6.23
2018-06-21T03:24:40.553Z,6.90
2018-06-21T03:27:10.004Z,6.70
2018-06-21T03:29:39.200Z,6.47
2018-06-21T03:32:07.827Z,6.50
2018-06-21T03:34:36.430Z,6.73
2018-06-21T03:37:05.233Z,6.47
2018-06-21T03:39:33.856Z,6.00
2018-06-21T03:42:02.540Z,6.43
2018-06-21T03:44:31.183Z,5.93
2018-06-21T03:46:59.936Z,6.27
2018-06-21T03:49:28.547Z,6.37
2018-06-21T03:51:57.333Z,7.03
2018-06-21T03:54:25.613Z,6.17
2018-06-21T03:56:54.287Z,6.07
2018-06-21T03:59:22.940Z,6.33
2018-06-21T04:01:51.558Z,6.00
2018-06-21T04:04:20.258Z,6.47
2018-06-21T04:06:48.962Z,6.80
2018-06-21T04:09:17.757Z,6.27
2018-06-21T04:11:46.430Z,6.40
2018-06-21T04:14:15.193Z,7.10
2018-06-21T04:16:44.002Z,6.00
2018-06-21T04:19:12.779Z,6.03
2018-06-21T04:21:41.603Z,6.33
2018-06-21T04:24:10.318Z,6.20
2018-06-21T04:26:39.140Z,6.90
2018-06-21T04:29:07.761Z,6.23
2018-06-21T04:31:36.516Z,6.50
2018-06-21T04:34:05.296Z,6.07
2018-06-21T04:36:34.426Z,6.27
2018-06-21T04:39:03.407Z,6.13
2018-06-21T04:41:32.108Z,5.63
2018-06-21T04:44:00.857Z,6.10
2018-06-21T04:46:29.576Z,5.53
2018-06-21T04:48:58.264Z,5.90
2018-06-21T04:51:26.919Z,5.63
2018-06-21T04:53:55.699Z,5.73
2018-06-21T04:56:24.942Z,5.60
2018-06-21T04:58:53.679Z,5.90
2018-06-21T05:01:22.435Z,6.10
2018-06-21T05:03:51.189Z,5.53
2018-06-21T05:06:19.991Z,5.70
2018-06-21T05:08:48.678Z,6.37
2018-06-21T05:11:17.422Z,6.70
2018-06-21T05:13:46.120Z,6.57
2018-06-21T05:16:14.823Z,6.10
2018-06-21T05:18:43.426Z,6.43
2018-06-21T05:21:12.164Z,6.27
2018-06-21T05:23:40.933Z,6.07
2018-06-21T05:26:09.650Z,5.97
2018-06-21T05:28:38.337Z,6.47
2018-06-21T05:31:06.650Z,6.17
2018-06-21T05:33:35.482Z,6.00
2018-06-21T05:36:04.166Z,6.20
2018-06-21T05:38:32.980Z,6.20
2018-06-21T05:41:01.668Z,6.30
2018-06-21T05:43:30.413Z,5.87
2018-06-21T05:45:59.113Z,6.50
2018-06-21T05:48:27.772Z,6.27
2018-06-21T05:50:56.613Z,6.57
2018-06-21T05:53:25.274Z,6.43
2018-06-21T05:55:54.019Z,5.97
2018-06-21T05:58:22.734Z,6.40
2018-06-21T06:00:51.435Z,6.43
2018-06-21T06:03:20.165Z,6.10
2018-06-21T06:05:48.876Z,5.70
2018-06-21T06:08:17.521Z,6.00
2018-06-21T06:10:46.171Z,6.00
2018-06-21T06:13:14.955Z,6.10
2018-06-21T06:15:43.807Z,5.87
2018-06-21T06:18:12.603Z,5.63
2018-06-21T06:20:41.259Z,5.00
2018-06-21T06:23:09.999Z,5.57
2018-06-21T06:25:38.651Z,5.77
2018-06-21T06:28:07.483Z,5.10
2018-06-21T06:30:36.351Z,5.50
2018-06-21T06:33:05.112Z,5.40
2018-06-21T06:35:33.999Z,5.40
2018-06-21T06:38:02.700Z,5.53
2018-06-21T06:40:31.440Z,4.90
2018-06-21T06:43:00.034Z,5.37
2018-06-21T06:45:28.814Z,5.00
2018-06-21T06:47:57.518Z,5.20
2018-06-21T06:50:26.200Z,4.93
2018-06-21T06:52:54.946Z,4.90
2018-06-21T06:55:23.717Z,4.93
2018-06-21T06:57:52.390Z,4.60
2018-06-21T07:00:21.025Z,4.57
2018-06-21T07:02:49.813Z,4.10
2018-06-21T07:05:18.480Z,3.63
2018-06-21T07:07:47.110Z,4.23
2018-06-21T07:10:15.739Z,4.00
2018-06-21T07:12:44.502Z,4.23
2018-06-21T07:15:13.314Z,4.00
2018-06-21T07:17:41.947Z,4.20
2018-06-21T07:20:10.585Z,4.30
2018-06-21T07:22:39.207Z,4.00
2018-06-21T07:25:07.865Z,3.40
2018-06-21T07:27:36.571Z,3.87
2018-06-21T07:30:05.308Z,4.20
2018-06-21T07:32:34.246Z,3.50
2018-06-21T07:35:02.987Z,3.53
2018-06-21T07:37:31.724Z,3.80
2018-06-21T07:40:00.431Z,3.37
2018-06-21T07:42:29.078Z,3.40
2018-06-21T07:44:57.757Z,3.63
2018-06-21T07:47:26.451Z,3.80
2018-06-21T07:49:55.115Z,3.77
2018-06-21T07:52:23.899Z,3.73
2018-06-21T07:54:52.570Z,3.63
2018-06-21T07:57:21.194Z,3.43
2018-06-21T07:59:50.068Z,3.83
2018-06-21T08:02:18.761Z,3.50
2018-06-21T08:04:47.473Z,3.23
2018-06-21T08:07:16.199Z,3.20
2018-06-21T08:09:44.819Z,3.50
2018-06-21T08:12:13.425Z,2.97
2018-06-21T08:14:42.059Z,3.20
2018-06-21T08:17:10.764Z,2.93
2018-06-21T08:19:39.371Z,2.63
2018-06-21T08:22:08.014Z,2.53
2018-06-21T08:24:36.665Z,2.73
2018-06-21T08:27:05.504Z,2.57
2018-06-21T08:29:34.083Z,3.10
2018-06-21T08:32:02.725Z,2.70
2018-06-21T08:34:31.390Z,2.30
2018-06-21T08:37:00.103Z,2.40
2018-06-21T08:39:28.798Z,2.60
2018-06-21T08:41:57.423Z,2.30
2018-06-21T08:44:26.130Z,2.30
2018-06-21T08:46:54.959Z,2.20
2018-06-21T08:49:23.708Z,2.70
2018-06-21T08:51:52.346Z,2.40
2018-06-21T08:54:21.212Z,2.70
2018-06-21T08:56:50.079Z,2.70
2018-06-21T08:59:18.819Z,2.70
2018-06-21T09:01:47.647Z,2.83
2018-06-21T09:04:16.335Z,2.60
2018-06-21T09:06:44.957Z,2.63
2018-06-21T09:09:13.681Z,2.83
2018-06-21T09:11:42.409Z,2.87
2018-06-21T09:14:11.095Z,2.93
2018-06-21T09:16:39.773Z,3.50
2018-06-21T09:19:08.445Z,2.87
2018-06-21T09:21:37.134Z,3.27
2018-06-21T09:24:06.033Z,2.50
2018-06-21T09:26:34.699Z,2.97
2018-06-21T09:29:03.391Z,3.20
2018-06-21T09:31:32.095Z,2.80
2018-06-21T09:34:00.707Z,3.00
2018-06-21T09:36:33.535Z,2.57
2018-06-21T09:40:05.810Z,2.93
2018-06-21T09:42:39.758Z,2.90
2018-06-21T09:45:08.395Z,3.00
2018-06-21T09:47:42.254Z,3.10
2018-06-21T09:50:11.039Z,2.60
2018-06-21T09:52:39.906Z,2.53
2018-06-21T09:55:08.616Z,2.77
2018-06-21T09:57:37.314Z,2.60
2018-06-21T10:00:06.013Z,2.70
2018-06-21T10:02:34.662Z,2.80
2018-06-21T10:05:03.334Z,2.83
2018-06-21T10:07:31.985Z,2.77
2018-06-21T10:10:00.822Z,2.43
2018-06-21T10:12:29.575Z,2.70
2018-06-21T10:14:58.235Z,2.90
2018-06-21T10:17:26.922Z,2.63
2018-06-21T10:19:55.636Z,3.17
2018-06-21T10:22:24.247Z,2.67
2018-06-21T10:24:52.927Z,2.80
2018-06-21T10:27:21.659Z,2.80
2018-06-21T10:29:50.313Z,2.90
2018-06-21T10:32:19.058Z,2.90
2018-06-21T10:34:47.672Z,3.00
2018-06-21T10:37:16.350Z,3.23
2018-06-21T10:39:44.939Z,2.73
2018-06-21T10:42:13.573Z,3.27
2018-06-21T10:44:42.190Z,2.80
2018-06-21T10:47:10.874Z,2.90
2018-06-21T10:49:39.608Z,3.17
2018-06-21T10:52:08.349Z,2.80
2018-06-21T10:54:37.053Z,2.70
2018-06-21T10:57:06.077Z,2.83
2018-06-21T10:59:34.715Z,3.00
2018-06-21T11:02:03.009Z,2.90
2018-06-21T11:04:31.671Z,3.20
2018-06-21T11:07:00.270Z,2.70
2018-06-21T11:09:28.844Z,2.70
2018-06-21T11:11:57.458Z,2.80
2018-06-21T11:14:26.211Z,3.20
2018-06-21T11:16:55.053Z,3.40
2018-06-21T11:19:23.702Z,3.50
2018-06-21T11:21:52.295Z,3.80
2018-06-21T11:24:21.042Z,3.10
2018-06-21T11:26:49.902Z,3.20
2018-06-21T11:29:18.642Z,3.00
2018-06-21T11:31:47.326Z,3.03
2018-06-21T11:34:16.030Z,3.00
2018-06-21T11:36:44.792Z,3.23
2018-06-21T11:39:13.483Z,3.20
2018-06-21T11:41:42.192Z,3.43
2018-06-21T11:44:10.921Z,2.73
2018-06-21T11:46:39.747Z,2.80
2018-06-21T11:49:08.452Z,2.80
2018-06-21T11:51:37.134Z,3.23
2018-06-21T11:54:05.914Z,2.80
2018-06-21T11:56:34.655Z,3.03
2018-06-21T11:59:03.302Z,2.90
2018-06-21T12:01:31.963Z,2.67
2018-06-21T12:04:00.641Z,2.53
2018-06-21T12:06:29.273Z,2.90
2018-06-21T12:08:57.968Z,2.90
2018-06-21T12:11:26.648Z,3.03
2018-06-21T12:13:55.378Z,3.10
2018-06-21T12:16:24.135Z,2.70
2018-06-21T12:18:52.825Z,2.87
2018-06-21T12:21:21.622Z,2.90
2018-06-21T12:23:50.272Z,3.10
2018-06-21T12:26:18.959Z,3.10
2018-06-21T12:28:47.666Z,3.30
2018-06-21T12:31:16.305Z,2.60
2018-06-21T12:33:45.041Z,3.10
2018-06-21T12:36:13.735Z,2.80
2018-06-21T12:38:42.432Z,2.90
2018-06-21T12:41:11.282Z,2.87
2018-06-21T12:43:40.404Z,2.90
2018-06-21T12:46:09.150Z,3.00
2018-06-21T12:48:37.886Z,3.13
2018-06-21T12:51:06.603Z,2.90
2018-06-21T12:53:35.401Z,2.97
2018-06-21T12:56:04.148Z,3.00
2018-06-21T12:58:32.888Z,2.90
2018-06-21T13:01:01.574Z,3.47
2018-06-21T13:03:30.292Z,3.20
2018-06-21T13:05:59.033Z,2.97
2018-06-21T13:08:38.908Z,3.03
2018-06-21T13:11:21.732Z,2.97
2018-06-21T13:13:50.464Z,2.87
2018-06-21T13:16:19.086Z,2.83
2018-06-21T13:18:47.947Z,3.10
2018-06-21T13:21:16.567Z,2.73
2018-06-21T13:23:45.251Z,3.00
2018-06-21T13:26:14.061Z,2.87
2018-06-21T13:28:42.714Z,2.60
2018-06-21T13:31:11.462Z,3.10
2018-06-21T13:33:40.193Z,2.77
2018-06-21T13:36:09.003Z,2.83
2018-06-21T13:38:37.727Z,3.20
2018-06-21T13:41:06.431Z,3.13
2018-06-21T13:43:35.155Z,3.17
2018-06-21T13:46:03.851Z,3.40
2018-06-21T13:48:32.488Z,2.90
2018-06-21T13:51:01.153Z,3.40
2018-06-21T13:53:29.946Z,3.00
2018-06-21T13:55:58.571Z,3.30
2018-06-21T13:58:27.224Z,2.80
2018-06-21T14:00:55.862Z,3.40
2018-06-21T14:03:24.612Z,3.03
2018-06-21T14:05:53.329Z,3.27
2018-06-21T14:08:22.121Z,3.67
2018-06-21T14:10:50.728Z,3.27
2018-06-21T14:13:19.400Z,3.03
2018-06-21T14:15:48.150Z,2.80
2018-06-21T14:18:16.886Z,3.10
2018-06-21T14:20:45.743Z,3.40
2018-06-21T14:23:19.887Z,3.43
2018-06-21T14:25:48.487Z,3.30
2018-06-21T14:28:17.172Z,3.47
2018-06-21T14:31:04.896Z,2.90
2018-06-21T14:33:33.807Z,2.90
2018-06-21T14:36:08.342Z,2.77
2018-06-21T14:38:37.126Z,2.90
2018-06-21T14:44:03.382Z,2.63
2018-06-21T14:46:32.186Z,3.17
2018-06-21T14:49:01.023Z,2.50
2018-06-21T14:51:29.767Z,2.87
2018-06-21T14:53:58.542Z,2.67
2018-06-21T14:56:27.382Z,2.43
2018-06-21T14:58:56.111Z,2.60
2018-06-21T15:01:24.758Z,2.60
2018-06-21T15:03:53.487Z,2.57
2018-06-21T15:06:22.669Z,2.40
2018-06-21T15:08:51.408Z,3.10
2018-06-21T15:11:20.253Z,2.40
2018-06-21T15:13:52.663Z,2.77
2018-06-21T15:16:22.588Z,2.60
2018-06-21T15:18:51.339Z,2.97
2018-06-21T15:21:20.088Z,2.57
2018-06-21T15:23:48.961Z,2.60
2018-06-21T15:26:17.737Z,2.70
2018-06-21T15:28:46.442Z,2.60
2018-06-21T15:31:15.132Z,2.73
2018-06-21T15:33:43.909Z,2.60
2018-06-21T15:36:12.626Z,2.63
2018-06-21T15:38:40.943Z,2.80
2018-06-21T15:41:09.704Z,2.60
2018-06-21T15:43:38.411Z,2.67
2018-06-21T15:46:07.168Z,2.40
2018-06-21T15:48:35.935Z,2.40
2018-06-21T15:51:04.698Z,2.63
2018-06-21T15:53:33.349Z,2.50
2018-06-21T15:56:01.627Z,2.60
2018-06-21T15:58:30.368Z,2.33
2018-06-21T16:00:59.082Z,2.40
2018-06-21T16:03:27.754Z,2.30
2018-06-21T16:05:56.411Z,2.47
2018-06-21T16:08:25.105Z,2.43
2018-06-21T16:10:53.733Z,2.70
2018-06-21T16:13:22.450Z,2.47
2018-06-21T16:15:51.202Z,2.30
2018-06-21T16:18:19.854Z,2.40
2018-06-21T16:20:48.619Z,2.73
2018-06-21T16:23:17.401Z,2.57
2018-06-21T16:25:46.174Z,2.73
2018-06-21T16:28:21.243Z,2.47
2018-06-21T16:30:49.884Z,2.37
2018-06-21T16:33:18.534Z,2.80
2018-06-21T16:35:47.235Z,2.60
2018-06-21T16:38:15.897Z,2.47
2018-06-21T16:40:44.537Z,2.30
2018-06-21T16:43:13.252Z,2.30
2018-06-21T16:45:41.962Z,2.47
2018-06-21T16:48:10.735Z,2.50
2018-06-21T16:50:39.334Z,2.30
2018-06-21T16:53:08.099Z,2.77
2018-06-21T16:55:36.961Z,2.57
2018-06-21T16:58:05.834Z,2.30
2018-06-21T17:00:34.506Z,2.63
2018-06-21T17:03:04.413Z,3.00
2018-06-21T17:05:33.200Z,3.03
2018-06-21T17:08:01.903Z,2.50
2018-06-21T17:10:30.560Z,2.90
2018-06-21T17:12:59.300Z,2.70
2018-06-21T17:15:28.053Z,3.13
2018-06-21T17:17:56.882Z,2.60
2018-06-21T17:20:25.538Z,2.80
2018-06-21T17:22:54.331Z,2.80
2018-06-21T17:25:23.103Z,2.47
2018-06-21T17:27:51.846Z,3.13
2018-06-21T17:30:20.640Z,3.03
2018-06-21T17:32:49.577Z,2.70
2018-06-21T17:35:18.278Z,3.10
2018-06-21T17:37:46.982Z,2.90
2018-06-21T17:40:32.443Z,2.70
2018-06-21T17:43:01.193Z,2.90
2018-06-21T17:45:30.017Z,2.50
2018-06-21T17:47:58.776Z,2.83
2018-06-21T17:50:27.483Z,2.60
2018-06-21T17:52:56.210Z,2.50
2018-06-21T17:55:24.892Z,3.10
2018-06-21T17:57:53.714Z,2.60
2018-06-21T18:00:22.306Z,3.93
2018-06-21T18:02:51.038Z,2.77
2018-06-21T18:05:19.686Z,2.80
2018-06-21T18:07:48.421Z,2.57
2018-06-21T18:10:16.687Z,2.90
2018-06-21T18:12:45.450Z,2.90
2018-06-21T18:15:14.127Z,2.70
2018-06-21T18:17:49.908Z,3.90
2018-06-21T18:20:18.614Z,6.13
2018-06-21T18:22:47.357Z,7.00
2018-06-21T18:25:16.207Z,3.30
2018-06-21T18:27:45.141Z,3.37
2018-06-21T18:30:13.948Z,3.17
2018-06-21T18:32:42.701Z,2.90
2018-06-21T18:35:11.383Z,3.50
2018-06-21T18:37:40.145Z,3.40
2018-06-21T18:40:18.818Z,3.20
2018-06-21T18:42:47.499Z,3.00
2018-06-21T18:45:17.218Z,3.10
2018-06-21T18:47:45.896Z,2.80
2018-06-21T18:50:14.623Z,2.90
2018-06-21T18:52:43.583Z,2.53
2018-06-21T18:55:12.361Z,2.77
2018-06-21T18:57:41.105Z,3.07
2018-06-21T19:00:10.948Z,3.10
2018-06-21T19:02:40.077Z,2.50
2018-06-21T19:05:08.819Z,2.67
2018-06-21T19:07:41.091Z,2.30
2018-06-21T19:10:14.979Z,2.80
2018-06-21T19:12:43.949Z,2.50
2018-06-21T19:18:13.484Z,2.20
2018-06-21T19:20:42.260Z,2.40
2018-06-21T19:23:13.176Z,2.57
2018-06-21T19:25:57.810Z,2.27
2018-06-21T19:28:26.587Z,2.40
2018-06-21T19:30:55.295Z,2.47
2018-06-21T19:33:24.146Z,2.20
2018-06-21T19:35:52.821Z,2.37
2018-06-21T19:38:21.654Z,2.37
2018-06-21T19:40:49.968Z,2.63
2018-06-21T19:43:18.836Z,2.50
2018-06-21T19:45:47.491Z,2.33
2018-06-21T19:48:16.228Z,2.30
2018-06-21T19:50:44.939Z,2.23
2018-06-21T19:53:23.226Z,2.20
2018-06-21T19:55:51.994Z,2.33
2018-06-21T19:58:21.735Z,2.10
2018-06-21T20:00:56.238Z,2.00
2018-06-21T20:03:24.966Z,2.00
2018-06-21T20:06:12.384Z,2.10
2018-06-21T20:08:41.559Z,1.93
2018-06-21T20:11:15.616Z,1.90
2018-06-21T20:13:48.910Z,2.17
2018-06-21T20:16:18.314Z,2.10
2018-06-21T20:18:46.706Z,2.37
2018-06-21T20:21:16.633Z,2.10
2018-06-21T20:23:48.493Z,1.70
2018-06-21T20:26:17.919Z,2.00
2018-06-21T20:28:46.638Z,2.90
2018-06-21T20:31:16.667Z,2.07
2018-06-21T20:33:46.507Z,2.23
2018-06-21T20:36:15.655Z,2.20
2018-06-21T20:38:44.412Z,1.93
2018-06-21T20:41:13.246Z,1.90
2018-06-21T20:43:42.031Z,1.63
2018-06-21T20:46:11.057Z,2.03
2018-06-21T20:48:39.791Z,1.80
2018-06-21T20:51:08.550Z,1.90
2018-06-21T20:53:37.171Z,1.73
2018-06-21T20:56:05.920Z,1.50
2018-06-21T20:58:34.628Z,1.90
2018-06-21T21:01:03.367Z,2.30
2018-06-21T21:03:32.172Z,1.50
2018-06-21T21:06:00.836Z,2.00
2018-06-21T21:08:29.504Z,2.00
2018-06-21T21:10:58.192Z,1.83
2018-06-21T21:13:26.847Z,1.70
2018-06-21T21:15:55.542Z,1.80
2018-06-21T21:18:24.213Z,1.90
2018-06-21T21:20:52.916Z,1.90
2018-06-21T21:23:21.551Z,1.90
2018-06-21T21:25:50.301Z,2.13
2018-06-21T21:28:19.024Z,2.20
2018-06-21T21:30:47.731Z,2.10
2018-06-21T21:33:16.501Z,1.60
2018-06-21T21:35:45.191Z,2.23
2018-06-21T21:38:13.941Z,1.93
2018-06-21T21:40:42.610Z,2.13
2018-06-21T21:43:11.226Z,1.97
2018-06-21T21:45:39.916Z,2.30
2018-06-21T21:48:08.481Z,2.30
2018-06-21T21:50:37.227Z,2.20
2018-06-21T21:53:06.006Z,2.27
2018-06-21T21:55:34.716Z,2.47
2018-06-21T21:58:03.386Z,2.33
2018-06-21T22:00:48.904Z,2.30
2018-06-21T22:03:17.573Z,2.10
2018-06-21T22:05:46.519Z,2.73
2018-06-21T22:08:22.734Z,1.90
2018-06-21T22:10:51.383Z,1.90
2018-06-21T22:13:20.079Z,1.90
2018-06-21T22:15:48.826Z,2.77
2018-06-21T22:18:17.593Z,2.23
2018-06-21T22:20:46.274Z,2.07
2018-06-21T22:23:14.982Z,2.10
2018-06-21T22:25:43.753Z,2.10
2018-06-21T22:28:12.489Z,3.10
2018-06-21T22:30:41.229Z,2.40
2018-06-21T22:33:09.923Z,1.90
2018-06-21T22:35:38.602Z,2.33
2018-06-21T22:38:07.266Z,2.23
2018-06-21T22:40:35.960Z,2.30
2018-06-21T22:43:04.578Z,2.43
2018-06-21T22:45:33.291Z,2.10
2018-06-21T22:48:01.940Z,2.20
2018-06-21T22:50:30.612Z,2.37
2018-06-21T22:52:59.258Z,2.57
2018-06-21T22:55:27.897Z,1.77
2018-06-21T22:57:56.610Z,2.00
2018-06-21T23:00:25.278Z,2.30
2018-06-21T23:02:53.894Z,2.30
2018-06-21T23:05:22.626Z,2.80
2018-06-21T23:07:51.270Z,2.57
2018-06-21T23:13:35.932Z,1.90
2018-06-21T23:16:04.550Z,2.30
2018-06-21T23:18:44.441Z,2.70
2018-06-21T23:21:13.130Z,2.70
2018-06-21T23:23:41.774Z,2.03
2018-06-21T23:26:10.541Z,2.20
2018-06-21T23:28:39.174Z,1.90
2018-06-21T23:31:08.002Z,2.60
2018-06-21T23:33:36.673Z,2.13
2018-06-21T23:36:05.477Z,2.50
2018-06-21T23:38:34.164Z,2.13
2018-06-21T23:41:02.784Z,2.00
2018-06-21T23:43:31.456Z,2.47
2018-06-21T23:46:00.136Z,1.93
2018-06-21T23:48:28.879Z,2.37
2018-06-21T23:50:57.574Z,3.00
2018-06-21T23:53:26.293Z,2.30
2018-06-21T23:55:55.089Z,2.40
2018-06-21T23:58:23.768Z,2.10
